createdAt,value
2023-08-27T00:02:29.121Z,100358.63
2023-08-27T00:04:58.870Z,100355.75
2023-08-27T00:07:31.589Z,100352.91
2023-08-27T00:10:02.151Z,100355.38
2023-08-27T00:12:32.314Z,100357.00
2023-08-27T00:15:02.915Z,100348.88
2023-08-27T00:17:32.979Z,100341.56
2023-08-27T00:20:05.533Z,100339.97
2023-08-27T00:22:38.844Z,100344.06
2023-08-27T00:25:10.845Z,100344.50
2023-08-27T00:27:41.915Z,100339.25
2023-08-27T00:30:13.748Z,100343.34
2023-08-27T00:32:43.778Z,100336.81
2023-08-27T00:35:14.313Z,100343.75
2023-08-27T00:37:45.860Z,100338.50
2023-08-27T00:40:17.697Z,100340.53
2023-08-27T00:42:48.269Z,100340.97
2023-08-27T00:45:18.641Z,100340.97
2023-08-27T00:47:49.315Z,100339.38
2023-08-27T00:50:20.783Z,100344.69
2023-08-27T00:52:54.780Z,100336.59
2023-08-27T00:55:24.840Z,100347.63
2023-08-27T00:57:57.857Z,100346.00
2023-08-27T01:00:28.687Z,100344.41
2023-08-27T01:02:59.394Z,100347.69
2023-08-27T01:05:31.141Z,100346.09
2023-08-27T01:08:17.778Z,100336.34
2023-08-27T01:11:01.279Z,100350.22
2023-08-27T01:13:40.361Z,100349.84
2023-08-27T01:16:12.658Z,100339.34
2023-08-27T01:18:44.822Z,100340.19
2023-08-27T01:21:22.835Z,100343.06
2023-08-27T01:23:53.747Z,100341.06
2023-08-27T01:26:31.573Z,100346.41
2023-08-27T01:29:11.972Z,100341.13
2023-08-27T01:31:51.507Z,100339.97
2023-08-27T01:34:26.335Z,100339.59
2023-08-27T01:36:59.685Z,100345.75
2023-08-27T01:39:29.630Z,100344.56
2023-08-27T01:42:00.033Z,100344.19
2023-08-27T01:44:30.482Z,100344.19
2023-08-27T01:47:00.238Z,100337.25
2023-08-27T01:49:30.871Z,100335.19
2023-08-27T01:52:02.717Z,100340.44
2023-08-27T01:54:36.350Z,100347.78
2023-08-27T01:57:07.443Z,100344.91
2023-08-27T01:59:37.866Z,100349.47
2023-08-27T02:02:08.624Z,100352.31
2023-08-27T02:04:39.317Z,100348.66
2023-08-27T02:07:12.642Z,100347.44
2023-08-27T02:09:43.060Z,100355.59
2023-08-27T02:12:13.408Z,100351.94
2023-08-27T02:14:44.882Z,100350.31
2023-08-27T02:17:15.048Z,100350.75
2023-08-27T02:19:45.861Z,100349.16
2023-08-27T02:22:17.875Z,100347.53
2023-08-27T02:24:47.579Z,100351.63
2023-08-27T02:27:18.036Z,100352.06
2023-08-27T02:29:48.442Z,100346.81
2023-08-27T02:32:18.753Z,100349.66
2023-08-27T02:34:48.457Z,100345.19
2023-08-27T02:37:20.251Z,100342.34
2023-08-27T02:39:51.005Z,100345.63
2023-08-27T02:42:21.100Z,100351.31
2023-08-27T02:44:51.513Z,100353.38
2023-08-27T02:47:22.074Z,100354.63
2023-08-27T02:49:52.599Z,100350.97
2023-08-27T02:52:25.006Z,100355.44
2023-08-27T02:54:55.017Z,100340.81
2023-08-27T02:57:25.806Z,100345.69
2023-08-27T02:59:58.480Z,100345.69
2023-08-27T03:02:29.740Z,100344.44
2023-08-27T03:05:02.806Z,100341.59
2023-08-27T03:07:49.487Z,100346.88
2023-08-27T03:10:19.471Z,100346.88
2023-08-27T03:12:50.846Z,100338.66
2023-08-27T03:15:21.417Z,100348.06
2023-08-27T03:17:51.955Z,100355.00
2023-08-27T03:20:22.396Z,100349.28
2023-08-27T03:22:55.191Z,100354.16
2023-08-27T03:25:25.693Z,100356.22
2023-08-27T03:27:55.394Z,100355.44
2023-08-27T03:30:25.946Z,100354.63
2023-08-27T03:32:56.459Z,100357.91
2023-08-27T03:35:27.012Z,100356.72
2023-08-27T03:37:59.449Z,100360.00
2023-08-27T03:40:30.135Z,100359.22
2023-08-27T03:42:59.997Z,100355.97
2023-08-27T03:45:31.272Z,100359.25
2023-08-27T03:48:01.852Z,100369.41
2023-08-27T03:50:33.562Z,100364.13
2023-08-27T03:53:05.637Z,100358.03
2023-08-27T03:55:43.005Z,100366.59
2023-08-27T03:58:14.156Z,100359.72
2023-08-27T04:00:45.114Z,100350.00
2023-08-27T04:03:15.804Z,100358.56
2023-08-27T04:05:49.931Z,100365.50
2023-08-27T04:08:22.742Z,100362.63
2023-08-27T04:10:54.267Z,100369.13
2023-08-27T04:13:24.253Z,100365.03
2023-08-27T04:16:03.075Z,100356.50
2023-08-27T04:18:34.249Z,100365.50
2023-08-27T04:21:06.265Z,100360.16
2023-08-27T04:23:38.537Z,100368.72
2023-08-27T04:26:08.983Z,100365.03
2023-08-27T04:28:39.893Z,100365.03
2023-08-27T04:31:10.139Z,100360.16
2023-08-27T04:33:39.953Z,100356.09
2023-08-27T04:36:10.726Z,100364.63
2023-08-27T04:38:43.162Z,100362.97
2023-08-27T04:41:11.884Z,100360.91
2023-08-27T04:43:42.359Z,100360.91
2023-08-27T04:46:12.179Z,100361.28
2023-08-27T04:48:42.797Z,100360.03
2023-08-27T04:51:15.543Z,100361.25
2023-08-27T04:53:48.156Z,100362.06
2023-08-27T04:56:18.676Z,100373.81
2023-08-27T04:58:49.364Z,100372.16
2023-08-27T05:01:28.550Z,100374.56
2023-08-27T05:03:59.215Z,100376.97
2023-08-27T05:06:29.881Z,100382.66
2023-08-27T05:09:01.936Z,100380.13
2023-08-27T05:11:32.583Z,100390.69
2023-08-27T05:14:03.393Z,100382.50
2023-08-27T05:16:35.966Z,100386.53
2023-08-27T05:19:05.979Z,100390.94
2023-08-27T05:21:36.501Z,100392.09
2023-08-27T05:24:09.568Z,100398.56
2023-08-27T05:26:40.019Z,100396.88
2023-08-27T05:29:10.505Z,100403.34
2023-08-27T05:31:41.055Z,100402.47
2023-08-27T05:34:10.951Z,100406.50
2023-08-27T05:36:41.399Z,100407.66
2023-08-27T05:39:15.743Z,100398.28
2023-08-27T05:41:46.246Z,100404.31
2023-08-27T05:44:16.913Z,100406.31
2023-08-27T05:46:46.816Z,100398.91
2023-08-27T05:49:17.419Z,100398.06
2023-08-27T05:51:48.161Z,100406.53
2023-08-27T05:54:20.338Z,100410.13
2023-08-27T05:56:51.071Z,100412.13
2023-08-27T05:59:21.782Z,100409.19
2023-08-27T06:01:52.674Z,100405.09
2023-08-27T06:04:23.449Z,100406.28
2023-08-27T06:06:54.077Z,100402.19
2023-08-27T06:09:26.648Z,100403.78
2023-08-27T06:11:57.271Z,100396.03
2023-08-27T06:14:27.137Z,100404.97
2023-08-27T06:16:57.638Z,100404.97
2023-08-27T06:19:39.229Z,100405.34
2023-08-27T06:22:13.928Z,100410.22
2023-08-27T06:24:45.315Z,100402.47
2023-08-27T06:27:16.385Z,100411.81
2023-08-27T06:29:47.301Z,100410.22
2023-08-27T06:32:18.197Z,100416.31
2023-08-27T06:34:48.517Z,100402.81
2023-08-27T06:37:19.164Z,100406.88
2023-08-27T06:39:51.379Z,100405.19
2023-08-27T06:42:21.915Z,100406.34
2023-08-27T06:44:52.472Z,100403.06
2023-08-27T06:47:22.906Z,100398.91
2023-08-27T06:49:54.456Z,100406.59
2023-08-27T06:52:24.871Z,100409.81
2023-08-27T06:54:56.814Z,100409.72
2023-08-27T06:57:28.615Z,100417.44
2023-08-27T06:59:58.380Z,100416.56
2023-08-27T07:02:29.543Z,100422.19
2023-08-27T07:05:00.304Z,100414.00
2023-08-27T07:07:31.808Z,100413.09
2023-08-27T07:10:04.727Z,100415.88
2023-08-27T07:12:36.160Z,100416.31
2023-08-27T07:15:07.329Z,100416.69
2023-08-27T07:17:37.785Z,100416.25
2023-08-27T07:20:10.708Z,100417.06
2023-08-27T07:22:41.270Z,100412.13
2023-08-27T07:25:15.671Z,100412.97
2023-08-27T07:27:47.895Z,100403.56
2023-08-27T07:30:18.496Z,100402.31
2023-08-27T07:32:49.051Z,100408.03
2023-08-27T07:35:19.798Z,100406.78
2023-08-27T07:37:50.325Z,100401.06
2023-08-27T07:40:23.148Z,100393.28
2023-08-27T07:42:54.783Z,100394.91
2023-08-27T07:45:25.686Z,100395.28
2023-08-27T07:47:56.227Z,100399.75
2023-08-27T07:53:10.170Z,100387.53
2023-08-27T07:55:41.619Z,100385.84
2023-08-27T07:58:11.602Z,100390.63
2023-08-27T08:00:42.163Z,100391.41
2023-08-27T08:03:13.132Z,100383.19
2023-08-27T08:05:43.829Z,100394.53
2023-08-27T08:08:14.783Z,100387.13
2023-08-27T08:10:47.122Z,100387.50
2023-08-27T08:13:18.276Z,100381.31
2023-08-27T08:15:52.582Z,100379.66
2023-08-27T08:18:23.144Z,100377.97
2023-08-27T08:20:57.751Z,100384.03
2023-08-27T08:23:28.895Z,100377.06
2023-08-27T08:26:02.382Z,100370.09
2023-08-27T08:28:33.222Z,100377.41
2023-08-27T08:31:04.793Z,100378.59
2023-08-27T08:33:35.495Z,100370.03
2023-08-27T08:36:06.535Z,100376.91
2023-08-27T08:38:36.433Z,100368.69
2023-08-27T08:41:12.649Z,100381.28
2023-08-27T08:43:48.807Z,100373.84
2023-08-27T08:46:22.716Z,100378.31
2023-08-27T08:48:56.191Z,100374.94
2023-08-27T08:51:29.253Z,100359.38
2023-08-27T08:54:08.411Z,100367.53
2023-08-27T08:56:47.740Z,100370.75
2023-08-27T08:59:17.544Z,100367.88
2023-08-27T09:01:51.839Z,100366.59
2023-08-27T09:04:38.263Z,100360.88
2023-08-27T09:07:09.353Z,100358.84
2023-08-27T09:09:42.352Z,100356.78
2023-08-27T09:12:17.394Z,100349.84
2023-08-27T09:14:47.623Z,100352.28
2023-08-27T09:17:21.670Z,100348.97
2023-08-27T09:19:54.226Z,100357.09
2023-08-27T09:22:27.111Z,100352.97
2023-08-27T09:24:58.838Z,100347.25
2023-08-27T09:27:54.977Z,100343.59
2023-08-27T09:30:26.644Z,100346.91
2023-08-27T09:32:58.441Z,100337.53
2023-08-27T09:35:41.434Z,100342.00
2023-08-27T09:38:15.152Z,100335.44
2023-08-27T09:40:46.018Z,100331.81
2023-08-27T09:43:19.014Z,100334.22
2023-08-27T09:45:49.750Z,100330.09
2023-08-27T09:48:27.816Z,100319.03
2023-08-27T09:51:07.787Z,100324.28
2023-08-27T09:53:38.749Z,100322.25
2023-08-27T09:56:09.258Z,100330.34
2023-08-27T09:58:44.226Z,100323.38
2023-08-27T10:01:14.850Z,100327.06
2023-08-27T10:03:47.427Z,100321.34
2023-08-27T10:06:17.559Z,100321.69
2023-08-27T10:08:54.239Z,100320.78
2023-08-27T10:11:26.571Z,100321.16
2023-08-27T10:14:00.328Z,100326.41
2023-08-27T10:16:31.856Z,100313.72
2023-08-27T10:19:02.834Z,100314.09
2023-08-27T10:21:34.412Z,100305.84
2023-08-27T10:24:06.560Z,100306.19
2023-08-27T10:26:38.070Z,100312.28
2023-08-27T10:29:11.212Z,100306.91
2023-08-27T10:31:41.585Z,100304.41
2023-08-27T10:34:11.725Z,100304.75
2023-08-27T10:36:45.529Z,100298.94
2023-08-27T10:39:19.108Z,100304.19
2023-08-27T10:41:50.101Z,100311.53
2023-08-27T10:44:24.270Z,100301.69
2023-08-27T10:47:16.257Z,100304.09
2023-08-27T10:49:49.214Z,100295.50
2023-08-27T10:52:22.696Z,100304.09
2023-08-27T10:55:05.105Z,100295.06
2023-08-27T10:57:40.112Z,100297.94
2023-08-27T11:00:26.920Z,100287.31
2023-08-27T11:03:01.516Z,100293.03
2023-08-27T11:05:32.880Z,100290.97
2023-08-27T11:08:16.847Z,100288.09
2023-08-27T11:10:47.551Z,100295.06
2023-08-27T11:13:40.779Z,100294.25
2023-08-27T11:16:18.704Z,100287.75
2023-08-27T11:18:52.561Z,100288.53
2023-08-27T11:21:24.528Z,100290.19
2023-08-27T11:24:20.832Z,100284.81
2023-08-27T11:27:00.436Z,100282.72
2023-08-27T11:29:31.622Z,100288.47
2023-08-27T11:32:05.769Z,100274.50
2023-08-27T11:34:39.789Z,100289.97
2023-08-27T11:37:11.117Z,100285.50
2023-08-27T11:39:42.892Z,100293.66
2023-08-27T11:42:15.252Z,100294.44
2023-08-27T11:44:52.934Z,100291.13
2023-08-27T11:47:26.554Z,100293.19
2023-08-27T11:50:00.986Z,100287.47
2023-08-27T11:52:34.511Z,100289.06
2023-08-27T11:55:05.475Z,100289.84
2023-08-27T11:57:36.928Z,100290.69
2023-08-27T12:00:14.545Z,100287.34
2023-08-27T12:02:47.337Z,100284.50
2023-08-27T12:05:18.999Z,100294.69
2023-08-27T12:07:50.382Z,100294.69
2023-08-27T12:10:35.280Z,100292.19
2023-08-27T12:13:06.283Z,100290.09
2023-08-27T12:15:37.555Z,100287.25
2023-08-27T12:18:13.214Z,100294.16
2023-08-27T12:20:43.356Z,100297.00
2023-08-27T12:23:15.934Z,100296.53
2023-08-27T12:25:52.114Z,100293.22
2023-08-27T12:28:22.952Z,100291.19
2023-08-27T12:30:55.399Z,100294.81
2023-08-27T12:33:41.189Z,100283.38
2023-08-27T12:36:11.671Z,100284.63
2023-08-27T12:38:41.832Z,100287.06
2023-08-27T12:41:14.802Z,100288.31
2023-08-27T12:43:44.663Z,100287.97
2023-08-27T12:46:15.298Z,100278.91
2023-08-27T12:48:49.591Z,100284.63
2023-08-27T12:51:20.382Z,100279.38
2023-08-27T12:53:50.911Z,100281.44
2023-08-27T12:56:21.667Z,100276.97
2023-08-27T12:58:51.586Z,100278.22
2023-08-27T13:01:22.992Z,100282.34
2023-08-27T13:03:55.134Z,100276.25
2023-08-27T13:06:26.263Z,100284.50
2023-08-27T13:08:56.741Z,100288.59
2023-08-27T13:11:27.597Z,100283.34
2023-08-27T13:13:58.016Z,100280.94
2023-08-27T13:16:29.686Z,100282.19
2023-08-27T13:19:02.404Z,100273.25
2023-08-27T13:21:32.292Z,100286.41
2023-08-27T13:24:05.055Z,100282.72
2023-08-27T13:26:36.219Z,100277.47
2023-08-27T13:29:08.367Z,100284.44
2023-08-27T13:31:39.695Z,100283.28
2023-08-27T13:34:11.390Z,100278.34
2023-08-27T13:36:43.833Z,100277.97
2023-08-27T13:39:13.897Z,100279.25
2023-08-27T13:41:44.769Z,100269.84
2023-08-27T13:44:15.471Z,100273.97
2023-08-27T13:46:49.480Z,100272.72
2023-08-27T13:49:22.305Z,100276.03
2023-08-27T13:51:52.542Z,100277.28
2023-08-27T13:54:22.317Z,100281.41
2023-08-27T13:56:52.827Z,100275.34
2023-08-27T13:59:23.688Z,100279.44
2023-08-27T14:01:53.833Z,100278.66
2023-08-27T14:04:25.711Z,100281.50
2023-08-27T14:06:57.942Z,100281.94
2023-08-27T14:09:29.685Z,100284.81
2023-08-27T14:12:01.284Z,100288.94
2023-08-27T14:14:32.368Z,100295.91
2023-08-27T14:17:02.949Z,100294.31
2023-08-27T14:19:35.726Z,100286.97
2023-08-27T14:22:06.680Z,100290.31
2023-08-27T14:24:37.690Z,100290.31
2023-08-27T14:27:08.740Z,100289.47
2023-08-27T14:29:40.313Z,100293.59
2023-08-27T14:32:10.433Z,100283.41
2023-08-27T14:34:42.840Z,100290.72
2023-08-27T14:37:13.612Z,100294.06
2023-08-27T14:39:44.588Z,100287.50
2023-08-27T14:42:15.385Z,100283.03
2023-08-27T14:44:45.641Z,100296.56
2023-08-27T14:47:20.821Z,100290.47
2023-08-27T14:49:53.484Z,100281.09
2023-08-27T14:52:24.511Z,100286.47
2023-08-27T14:54:55.083Z,100278.34
2023-08-27T14:57:27.787Z,100286.94
2023-08-27T14:59:58.350Z,100278.78
2023-08-27T15:02:28.939Z,100280.50
2023-08-27T15:05:01.658Z,100288.28
2023-08-27T15:07:33.421Z,100283.00
2023-08-27T15:10:04.046Z,100291.22
2023-08-27T15:12:35.144Z,100292.50
2023-08-27T15:15:05.855Z,100289.69
2023-08-27T15:17:36.138Z,100290.97
2023-08-27T15:20:10.952Z,100289.38
2023-08-27T15:22:41.577Z,100284.50
2023-08-27T15:25:13.078Z,100288.63
2023-08-27T15:27:44.431Z,100284.59
2023-08-27T15:30:16.589Z,100284.25
2023-08-27T15:32:47.338Z,100283.44
2023-08-27T15:35:19.780Z,100281.03
2023-08-27T15:37:51.208Z,100287.19
2023-08-27T15:40:21.145Z,100283.19
2023-08-27T15:43:11.897Z,100290.94
2023-08-27T15:45:42.525Z,100292.66
2023-08-27T15:48:14.380Z,100297.53
2023-08-27T15:50:45.793Z,100301.22
2023-08-27T15:53:18.955Z,100304.53
2023-08-27T15:55:49.885Z,100308.19
2023-08-27T15:58:20.362Z,100308.19
2023-08-27T16:00:51.718Z,100299.25
2023-08-27T16:03:22.418Z,100304.97
2023-08-27T16:05:54.935Z,100302.94
2023-08-27T16:08:25.911Z,100300.50
2023-08-27T16:10:56.536Z,100302.56
2023-08-27T16:13:27.173Z,100311.16
2023-08-27T16:15:58.141Z,100307.94
2023-08-27T16:18:28.016Z,100305.06
2023-08-27T16:20:59.828Z,100305.53
2023-08-27T16:23:29.619Z,100311.66
2023-08-27T16:26:00.601Z,100309.25
2023-08-27T16:28:31.186Z,100311.75
2023-08-27T16:31:01.832Z,100310.16
2023-08-27T16:33:32.434Z,100315.53
2023-08-27T16:36:05.266Z,100313.91
2023-08-27T16:38:35.833Z,100319.28
2023-08-27T16:41:06.421Z,100312.41
2023-08-27T16:43:37.091Z,100315.69
2023-08-27T16:46:06.987Z,100318.19
2023-08-27T16:48:37.891Z,100315.78
2023-08-27T16:51:10.466Z,100321.94
2023-08-27T16:53:43.936Z,100317.13
2023-08-27T16:56:14.587Z,100317.97
2023-08-27T16:58:45.491Z,100321.28
2023-08-27T17:01:15.997Z,100316.00
2023-08-27T17:03:46.675Z,100322.97
2023-08-27T17:06:18.885Z,100324.22
2023-08-27T17:08:49.348Z,100326.72
2023-08-27T17:11:20.330Z,100330.81
2023-08-27T17:13:50.894Z,100328.41
2023-08-27T17:16:21.595Z,100339.00
2023-08-27T17:18:51.412Z,100339.47
2023-08-27T17:21:26.247Z,100335.38
2023-08-27T17:23:57.063Z,100339.09
2023-08-27T17:26:26.874Z,100336.25
2023-08-27T17:28:56.709Z,100347.31
2023-08-27T17:31:26.809Z,100343.66
2023-08-27T17:33:57.385Z,100342.50
2023-08-27T17:36:30.469Z,100349.00
2023-08-27T17:39:00.306Z,100354.34
2023-08-27T17:41:33.457Z,100349.88
2023-08-27T17:44:04.587Z,100349.53
2023-08-27T17:46:34.418Z,100353.66
2023-08-27T17:49:04.998Z,100357.75
2023-08-27T17:51:37.392Z,100361.84
2023-08-27T17:54:08.935Z,100357.00
2023-08-27T17:56:39.655Z,100363.97
2023-08-27T17:59:12.848Z,100370.91
2023-08-27T18:01:44.848Z,100368.50
2023-08-27T18:04:15.452Z,100373.84
2023-08-27T18:06:47.898Z,100368.13
2023-08-27T18:09:19.192Z,100371.44
2023-08-27T18:11:49.920Z,100370.66
2023-08-27T18:14:20.373Z,100380.47
2023-08-27T18:16:51.092Z,100379.63
2023-08-27T18:19:21.895Z,100379.63
2023-08-27T18:21:54.328Z,100376.00
2023-08-27T18:24:24.889Z,100382.50
2023-08-27T18:26:55.409Z,100383.75
2023-08-27T18:29:25.329Z,100380.88
2023-08-27T18:31:55.900Z,100381.34
2023-08-27T18:34:26.555Z,100381.78
2023-08-27T18:36:58.339Z,100381.78
2023-08-27T18:39:28.911Z,100382.22
2023-08-27T18:41:59.315Z,100382.66
2023-08-27T18:44:30.092Z,100375.31
2023-08-27T18:47:00.600Z,100385.13
2023-08-27T18:49:30.485Z,100379.41
2023-08-27T18:52:02.981Z,100372.91
2023-08-27T18:54:32.899Z,100371.28
2023-08-27T18:57:03.507Z,100369.66
2023-08-27T18:59:34.805Z,100369.66
2023-08-27T19:02:06.554Z,100372.16
2023-08-27T19:04:37.906Z,100370.91
2023-08-27T19:07:10.324Z,100365.22
2023-08-27T19:09:43.469Z,100365.66
2023-08-27T19:12:16.225Z,100364.03
2023-08-27T19:14:51.028Z,100365.28
2023-08-27T19:17:22.409Z,100368.13
2023-08-27T19:19:56.003Z,100367.31
2023-08-27T19:22:28.018Z,100361.59
2023-08-27T19:24:58.122Z,100363.66
2023-08-27T19:27:28.289Z,100357.13
2023-08-27T19:29:58.781Z,100355.91
2023-08-27T19:32:29.341Z,100351.44
2023-08-27T19:35:00.689Z,100343.69
2023-08-27T19:37:34.076Z,100352.25
2023-08-27T19:40:05.507Z,100351.44
2023-08-27T19:42:36.520Z,100349.84
2023-08-27T19:45:09.705Z,100352.69
2023-08-27T19:47:42.153Z,100349.84
2023-08-27T19:50:15.499Z,100351.88
2023-08-27T19:52:47.453Z,100359.66
2023-08-27T19:55:17.472Z,100347.41
2023-08-27T19:57:47.144Z,100353.13
2023-08-27T20:00:18.962Z,100349.84
2023-08-27T20:02:49.276Z,100351.88
2023-08-27T20:05:21.790Z,100344.56
2023-08-27T20:07:52.947Z,100353.13
2023-08-27T20:10:23.098Z,100348.22
2023-08-27T20:12:53.053Z,100340.47
2023-08-27T20:15:23.059Z,100342.06
2023-08-27T20:17:53.638Z,100340.84
2023-08-27T20:20:27.204Z,100345.31
2023-08-27T20:22:59.455Z,100349.78
2023-08-27T20:25:30.794Z,100344.06
2023-08-27T20:28:01.918Z,100347.69
2023-08-27T20:30:32.757Z,100342.81
2023-08-27T20:33:03.718Z,100336.28
2023-08-27T20:35:34.659Z,100339.97
2023-08-27T20:38:07.830Z,100333.81
2023-08-27T20:40:40.069Z,100342.38
2023-08-27T20:43:11.272Z,100341.56
2023-08-27T20:45:46.027Z,100345.22
2023-08-27T20:48:16.586Z,100341.56
2023-08-27T20:50:46.791Z,100337.44
2023-08-27T20:53:19.081Z,100325.59
2023-08-27T20:55:49.631Z,100327.22
2023-08-27T20:58:20.120Z,100330.06
2023-08-27T21:00:49.961Z,100328.81
2023-08-27T21:03:19.579Z,100331.25
2023-08-27T21:05:49.402Z,100331.25
2023-08-27T21:08:21.913Z,100323.50
2023-08-27T21:10:51.617Z,100322.69
2023-08-27T21:13:21.317Z,100332.06
2023-08-27T21:15:55.304Z,100327.97
2023-08-27T21:18:25.789Z,100324.31
2023-08-27T21:20:57.238Z,100322.25
2023-08-27T21:23:29.854Z,100321.44
2023-08-27T21:26:00.424Z,100330.44
2023-08-27T21:28:31.185Z,100324.31
2023-08-27T21:31:17.858Z,100322.25
2023-08-27T21:33:53.484Z,100324.72
2023-08-27T21:36:23.800Z,100323.91
2023-08-27T21:38:55.448Z,100323.13
2023-08-27T21:41:25.048Z,100317.41
2023-08-27T21:43:55.334Z,100317.00
2023-08-27T21:49:12.891Z,100312.50
2023-08-27T21:51:43.254Z,100310.88
2023-08-27T21:54:15.992Z,100314.13
2023-08-27T21:56:46.590Z,100310.88
2023-08-27T21:59:17.266Z,100313.72
2023-08-27T22:01:47.656Z,100310.88
2023-08-27T22:04:20.364Z,100311.69
2023-08-27T22:06:50.775Z,100308.03
2023-08-27T22:09:22.531Z,100305.16
2023-08-27T22:11:53.236Z,100302.31
2023-08-27T22:14:23.671Z,100298.66
2023-08-27T22:16:53.819Z,100289.28
2023-08-27T22:19:24.594Z,100299.91
2023-08-27T22:21:54.543Z,100297.06
2023-08-27T22:24:26.731Z,100289.28
2023-08-27T22:26:56.964Z,100285.25
2023-08-27T22:29:26.706Z,100285.25
2023-08-27T22:31:57.251Z,100280.78
2023-08-27T22:34:27.191Z,100284.09
2023-08-27T22:36:56.946Z,100282.03
2023-08-27T22:39:29.209Z,100284.09
2023-08-27T22:41:58.980Z,100278.41
2023-08-27T22:44:29.138Z,100284.91
2023-08-27T22:46:58.864Z,100278.75
2023-08-27T22:49:29.182Z,100273.06
2023-08-27T22:52:07.251Z,100287.31
2023-08-27T22:54:41.390Z,100285.25
2023-08-27T22:57:11.864Z,100283.19
2023-08-27T22:59:42.566Z,100275.91
2023-08-27T23:02:12.997Z,100279.56
2023-08-27T23:04:44.135Z,100281.16
2023-08-27T23:07:14.328Z,100279.56
2023-08-27T23:09:47.620Z,100278.31
2023-08-27T23:12:18.064Z,100290.19
2023-08-27T23:14:48.400Z,100283.66
2023-08-27T23:17:18.057Z,100284.91
2023-08-27T23:19:49.515Z,100278.41
2023-08-27T23:22:19.825Z,100277.56
2023-08-27T23:24:51.760Z,100268.22
2023-08-27T23:27:22.215Z,100275.97
2023-08-27T23:29:53.681Z,100267.41
2023-08-27T23:32:24.403Z,100266.16
2023-08-27T23:34:54.374Z,100266.59
2023-08-27T23:37:25.429Z,100270.25
2023-08-27T23:39:57.980Z,100267.84
2023-08-27T23:42:28.408Z,100279.28
2023-08-27T23:45:01.334Z,100267.06
2023-08-27T23:47:32.581Z,100271.94
2023-08-27T23:50:02.401Z,100266.25
2023-08-27T23:52:32.644Z,100278.09
2023-08-27T23:55:06.013Z,100279.72
2023-08-27T23:57:36.676Z,100277.28
